Time;durP1;ratioP1;P1;durP2;ratioP2;P2;SDS_P1;SDS_P2;PMS_P1;PMS_P2;Temp;Humidity;BMP_temperature;BMP_pressure;BME280_temperature;BME280_humidity;BME280_pressure;Samples;Min_cycle;Max_cycle;Signal;HPM_P1;HPM_P2
2023/06/24 00:01:55;;;;;;;1999.90;999.90;;;22.20;82.10;;;;;;5054742;28;20040;-70
2023/06/24 00:04:23;;;;;;;1999.90;999.90;;;22.50;80.80;;;;;;5056840;28;21083;-71
2023/06/24 00:06:52;;;;;;;1999.90;999.90;;;22.60;81.00;;;;;;5053053;28;20036;-71
2023/06/24 00:09:19;;;;;;;1999.90;999.90;;;22.70;79.80;;;;;;5047855;28;20055;-72
2023/06/24 00:11:47;;;;;;;1999.90;999.90;;;23.00;79.10;;;;;;5042963;28;20036;-69
2023/06/24 00:14:15;;;;;;;1999.90;999.90;;;23.30;78.10;;;;;;5054526;28;20025;-69
2023/06/24 00:16:42;;;;;;;1999.90;999.90;;;23.20;77.10;;;;;;5051701;28;20044;-69
2023/06/24 00:19:09;;;;;;;1999.90;999.90;;;23.10;77.10;;;;;;5053860;28;20024;-71
2023/06/24 00:21:37;;;;;;;1999.90;999.90;;;23.40;77.40;;;;;;5057164;28;20037;-70
2023/06/24 00:24:04;;;;;;;1999.90;999.90;;;23.70;75.90;;;;;;5052521;28;20037;-72
2023/06/24 00:26:32;;;;;;;1999.90;999.90;;;23.00;77.80;;;;;;5057364;28;20027;-71
2023/06/24 00:29:00;;;;;;;1999.90;999.90;;;22.90;77.70;;;;;;5058187;28;20070;-71
2023/06/24 00:31:27;;;;;;;1999.90;999.90;;;22.70;77.30;;;;;;5050100;28;20088;-70
2023/06/24 00:33:54;;;;;;;1999.90;999.90;;;23.00;78.10;;;;;;5057039;28;20036;-69
2023/06/24 00:36:22;;;;;;;1999.90;999.90;;;23.00;77.90;;;;;;5056216;28;20036;-71
2023/06/24 00:38:49;;;;;;;1999.90;999.90;;;23.40;76.50;;;;;;5053754;28;20059;-70
2023/06/24 00:41:18;;;;;;;1999.90;999.90;;;23.50;76.60;;;;;;5056752;28;20533;-71
2023/06/24 00:43:46;;;;;;;1999.90;999.90;;;23.30;75.60;;;;;;5063857;28;20494;-69
2023/06/24 00:46:15;;;;;;;1999.90;999.90;;;23.40;77.30;;;;;;5058289;28;20464;-70
2023/06/24 00:48:42;;;;;;;1999.90;999.90;;;24.00;77.10;;;;;;5055949;28;20086;-70
2023/06/24 00:51:10;;;;;;;1999.90;999.90;;;24.80;75.40;;;;;;5056289;28;20060;-70
2023/06/24 00:53:38;;;;;;;1999.90;999.90;;;25.10;74.10;;;;;;5059316;28;20024;-70
2023/06/24 00:56:06;;;;;;;1999.90;999.90;;;24.70;73.70;;;;;;5055961;28;20111;-70
2023/06/24 00:58:38;;;;;;;1999.90;999.90;;;24.20;74.30;;;;;;5059760;28;20037;-70
2023/06/24 01:01:08;;;;;;;1999.90;999.90;;;23.30;75.80;;;;;;5057938;28;20478;-70
2023/06/24 01:03:36;;;;;;;1999.90;999.90;;;22.40;76.40;;;;;;5058623;28;20055;-67
2023/06/24 01:06:04;;;;;;;1999.90;999.90;;;21.70;78.00;;;;;;5048906;28;20479;-71
2023/06/24 01:08:32;;;;;;;1999.90;999.90;;;21.40;78.20;;;;;;5064509;28;20089;-68
2023/06/24 01:11:02;;;;;;;1999.90;999.90;;;20.50;79.20;;;;;;5050148;28;20044;-69
2023/06/24 01:13:29;;;;;;;1999.90;999.90;;;20.30;81.20;;;;;;5055754;28;20071;-69
2023/06/24 01:16:07;;;;;;;1999.90;999.90;;;20.40;81.50;;;;;;5058866;28;20029;-70
2023/06/24 01:18:49;;;;;;;1999.90;999.90;;;20.60;79.90;;;;;;5061240;28;20040;-71
2023/06/24 01:21:50;;;;;;;1999.90;999.90;;;21.70;78.80;;;;;;5060773;28;20021;-69
2023/06/24 01:24:27;;;;;;;1999.90;999.90;;;23.30;77.40;;;;;;5053077;28;20100;-72
2023/06/24 01:27:06;;;;;;;1999.90;999.90;;;23.80;74.60;;;;;;5057322;28;20029;-68
2023/06/24 01:29:46;;;;;;;1999.90;999.90;;;24.60;74.70;;;;;;5057813;28;20028;-70
2023/06/24 01:32:17;;;;;;;1999.90;999.90;;;24.60;73.80;;;;;;5059577;28;20060;-69
2023/06/24 01:35:20;;;;;;;1999.90;999.90;;;24.80;74.60;;;;;;5056913;28;20029;-73
2023/06/24 01:37:55;;;;;;;1999.90;999.90;;;25.00;73.20;;;;;;5056496;28;20506;-69
2023/06/24 01:40:49;;;;;;;1999.90;999.90;;;25.40;72.70;;;;;;5055948;28;20040;-71
2023/06/24 01:43:18;;;;;;;1999.90;999.90;;;24.70;72.40;;;;;;5058736;28;20095;-70
2023/06/24 01:45:53;;;;;;;1999.90;999.90;;;24.00;72.20;;;;;;5054590;28;20049;-69
2023/06/24 01:48:32;;;;;;;1999.90;999.90;;;24.40;73.70;;;;;;5061555;28;20028;-71
2023/06/24 01:51:18;;;;;;;1999.90;999.90;;;25.10;73.30;;;;;;5054350;28;20379;-72
2023/06/24 01:53:55;;;;;;;1999.90;999.90;;;25.90;72.80;;;;;;5053289;28;20468;-69
2023/06/24 01:56:25;;;;;;;1999.90;999.90;;;25.30;71.80;;;;;;5048314;28;20043;-69
2023/06/24 01:58:56;;;;;;;1999.90;999.90;;;25.50;71.20;;;;;;5053014;28;20037;-69
2023/06/24 02:01:25;;;;;;;1999.90;999.90;;;25.60;71.40;;;;;;5047067;28;20057;-69
2023/06/24 02:03:55;;;;;;;1999.90;999.90;;;25.70;71.80;;;;;;5050251;28;20045;-69
2023/06/24 02:06:24;;;;;;;1999.90;999.90;;;25.40;70.20;;;;;;5058883;28;20039;-73
2023/06/24 02:08:53;;;;;;;1999.90;999.90;;;25.20;70.90;;;;;;5052420;28;20025;-70
2023/06/24 02:11:24;;;;;;;1999.90;999.90;;;25.60;71.80;;;;;;5052211;28;20089;-70
2023/06/24 02:13:54;;;;;;;1999.90;999.90;;;26.30;71.10;;;;;;5063593;28;20021;-69
2023/06/24 02:16:23;;;;;;;1999.90;999.90;;;26.80;69.90;;;;;;5057441;28;20036;-69
2023/06/24 02:18:51;;;;;;;1999.90;999.90;;;27.20;69.60;;;;;;5053993;28;20033;-70
2023/06/24 02:21:19;;;;;;;1999.90;999.90;;;27.30;68.70;;;;;;5058087;28;20480;-68
2023/06/24 02:23:48;;;;;;;1999.90;999.90;;;27.20;68.70;;;;;;5064871;28;20032;-69
2023/06/24 02:26:17;;;;;;;1999.90;999.90;;;26.90;67.70;;;;;;5054858;28;20033;-75
2023/06/24 02:28:46;;;;;;;1999.90;999.90;;;26.60;69.40;;;;;;5061121;28;20028;-72
2023/06/24 02:31:14;;;;;;;1999.90;999.90;;;26.70;68.30;;;;;;5058705;28;20558;-69
2023/06/24 02:33:42;;;;;;;1999.90;999.90;;;26.90;70.10;;;;;;5058322;28;20541;-69
2023/06/24 02:36:11;;;;;;;1999.90;999.90;;;27.20;68.60;;;;;;5048739;28;20029;-69
2023/06/24 02:38:38;;;;;;;1999.90;999.90;;;27.00;68.20;;;;;;5058370;28;20124;-72
2023/06/24 02:41:05;;;;;;;1999.90;999.90;;;26.60;68.30;;;;;;5061390;28;20029;-71
2023/06/24 02:43:35;;;;;;;1999.90;999.90;;;26.10;69.00;;;;;;5055575;28;20063;-69
2023/06/24 02:46:06;;;;;;;1999.90;999.90;;;26.00;69.00;;;;;;5056106;28;20082;-70
2023/06/24 02:48:35;;;;;;;1999.90;999.90;;;26.20;70.60;;;;;;5057747;28;20091;-69
2023/06/24 02:51:04;;;;;;;1999.90;999.90;;;26.10;69.30;;;;;;5058134;28;20036;-70
2023/06/24 02:53:32;;;;;;;1999.90;999.90;;;25.90;68.70;;;;;;5057039;28;20504;-72
2023/06/24 02:56:00;;;;;;;1999.90;999.90;;;26.10;70.40;;;;;;5056277;28;20040;-71
2023/06/24 02:58:31;;;;;;;1999.90;999.90;;;26.40;70.20;;;;;;5053355;28;20472;-69
2023/06/24 03:01:00;;;;;;;1999.90;999.90;;;25.90;67.40;;;;;;5062211;28;20506;-71
2023/06/24 03:03:28;;;;;;;1999.90;999.90;;;25.60;68.30;;;;;;5058273;28;20458;-69
2023/06/24 03:05:59;;;;;;;1999.90;999.90;;;24.90;68.30;;;;;;5057680;28;20036;-70
2023/06/24 03:08:27;;;;;;;1999.90;999.90;;;24.70;69.30;;;;;;5060443;28;20028;-70
2023/06/24 03:10:58;;;;;;;1999.90;999.90;;;24.30;68.80;;;;;;5054162;28;20057;-69
2023/06/24 03:13:26;;;;;;;1999.90;999.90;;;23.50;69.10;;;;;;5063111;28;20422;-69
2023/06/24 03:15:53;;;;;;;1999.90;999.90;;;23.20;70.10;;;;;;5051711;28;20041;-71
2023/06/24 03:18:21;;;;;;;1999.90;999.90;;;22.70;70.40;;;;;;5058251;28;20105;-69
2023/06/24 03:20:48;;;;;;;1999.90;999.90;;;22.30;71.10;;;;;;5051964;28;20032;-69
2023/06/24 03:23:15;;;;;;;1999.90;999.90;;;22.00;72.30;;;;;;5059224;28;20085;-70
2023/06/24 03:25:43;;;;;;;1999.90;999.90;;;21.70;72.00;;;;;;5052321;28;20047;-70
2023/06/24 03:28:11;;;;;;;1999.90;999.90;;;21.50;71.70;;;;;;5055717;28;20031;-70
2023/06/24 03:30:39;;;;;;;1999.90;999.90;;;21.30;72.90;;;;;;5049933;28;20063;-70
2023/06/24 03:33:06;;;;;;;1999.90;999.90;;;21.10;72.40;;;;;;5054782;28;20480;-72
2023/06/24 03:35:33;;;;;;;1999.90;999.90;;;20.70;72.30;;;;;;5056091;28;20021;-73
2023/06/24 03:38:01;;;;;;;1999.90;999.90;;;20.40;73.20;;;;;;5054190;28;20044;-72
2023/06/24 03:40:28;;;;;;;1999.90;999.90;;;20.30;73.40;;;;;;5051163;28;20052;-71
2023/06/24 03:42:55;;;;;;;1999.90;999.90;;;20.10;73.10;;;;;;5055485;28;20040;-72
2023/06/24 03:45:23;;;;;;;1999.90;999.90;;;20.00;73.10;;;;;;5048342;28;20032;-72
2023/06/24 03:47:50;;;;;;;1999.90;999.90;;;20.00;73.10;;;;;;5054700;28;20029;-69
2023/06/24 03:50:17;;;;;;;1999.90;999.90;;;19.90;72.10;;;;;;5056522;28;20116;-72
2023/06/24 03:52:45;;;;;;;1999.90;999.90;;;19.90;73.30;;;;;;5048994;28;20056;-74
2023/06/24 03:55:12;;;;;;;1999.90;999.90;;;19.90;73.60;;;;;;5053727;28;20025;-70
2023/06/24 03:57:40;;;;;;;1999.90;999.90;;;20.00;72.90;;;;;;5054602;28;20045;-69
2023/06/24 04:00:17;;;;;;;1999.90;999.90;;;19.90;72.30;;;;;;5055266;28;20443;-70
2023/06/24 04:02:45;;;;;;;1999.90;999.90;;;19.80;72.00;;;;;;5054816;28;20036;-69
2023/06/24 04:05:12;;;;;;;1999.90;999.90;;;19.70;72.40;;;;;;5054088;28;20123;-70
2023/06/24 04:07:40;;;;;;;1999.90;999.90;;;19.70;72.50;;;;;;5054623;28;20123;-70
2023/06/24 04:10:10;;;;;;;1999.90;999.90;;;19.60;72.20;;;;;;5064346;28;20016;-72
2023/06/24 04:12:37;;;;;;;1999.90;999.90;;;19.60;72.40;;;;;;5059290;28;20017;-70
2023/06/24 04:15:05;;;;;;;1999.90;999.90;;;19.60;71.60;;;;;;5055104;28;20463;-72
2023/06/24 04:17:33;;;;;;;1999.90;999.90;;;19.60;71.40;;;;;;5047743;28;20175;-69
2023/06/24 04:20:00;;;;;;;1999.90;999.90;;;19.60;71.00;;;;;;5049542;28;20056;-70
2023/06/24 04:22:27;;;;;;;1999.90;999.90;;;19.50;71.30;;;;;;5053038;28;20033;-70
2023/06/24 04:24:55;;;;;;;1999.90;999.90;;;19.40;71.90;;;;;;5060989;28;20030;-71
2023/06/24 04:27:22;;;;;;;1999.90;999.90;;;19.40;72.10;;;;;;5053483;28;20041;-70
2023/06/24 04:29:49;;;;;;;1999.90;999.90;;;19.30;72.50;;;;;;5060485;28;20032;-70
2023/06/24 04:32:17;;;;;;;1999.90;999.90;;;19.40;71.60;;;;;;5052881;28;20041;-74
2023/06/24 04:34:44;;;;;;;1999.90;999.90;;;19.30;72.00;;;;;;5046062;28;20028;-72
2023/06/24 04:37:11;;;;;;;1999.90;999.90;;;19.40;72.70;;;;;;5053476;28;20447;-70
2023/06/24 04:39:38;;;;;;;1999.90;999.90;;;19.40;71.00;;;;;;5058343;28;20107;-69
2023/06/24 04:42:06;;;;;;;1999.90;999.90;;;19.40;70.50;;;;;;5059529;28;20055;-69
2023/06/24 04:44:33;;;;;;;1999.90;999.90;;;19.40;70.80;;;;;;5051202;28;20426;-74
2023/06/24 04:47:01;;;;;;;1999.90;999.90;;;19.40;71.00;;;;;;5046371;28;20479;-68
2023/06/24 04:49:28;;;;;;;1999.90;999.90;;;19.40;71.10;;;;;;5053070;28;20323;-71
2023/06/24 04:51:55;;;;;;;1999.90;999.90;;;19.40;71.50;;;;;;5058150;28;20096;-68
2023/06/24 04:54:23;;;;;;;1999.90;999.90;;;19.30;71.40;;;;;;5055284;28;20554;-72
2023/06/24 04:56:51;;;;;;;1999.90;999.90;;;19.30;71.60;;;;;;5055526;28;20040;-69
2023/06/24 04:59:18;;;;;;;1999.90;999.90;;;19.30;72.10;;;;;;5062596;28;20040;-69
2023/06/24 05:01:46;;;;;;;1999.90;999.90;;;19.20;72.10;;;;;;5053832;28;20472;-69
2023/06/24 05:04:13;;;;;;;1999.90;999.90;;;19.20;72.30;;;;;;5054113;28;20432;-71
2023/06/24 05:06:40;;;;;;;1999.90;999.90;;;19.20;73.30;;;;;;5052973;28;20048;-70
2023/06/24 05:09:13;;;;;;;1999.90;999.90;;;19.10;73.50;;;;;;5050925;28;20048;-72
2023/06/24 05:11:41;;;;;;;1999.90;999.90;;;19.20;72.70;;;;;;5051769;28;20067;-69
2023/06/24 05:14:08;;;;;;;1999.90;999.90;;;19.20;73.00;;;;;;5051185;28;20523;-70
2023/06/24 05:16:36;;;;;;;1999.90;999.90;;;19.20;73.00;;;;;;5050734;28;20103;-70
2023/06/24 05:19:03;;;;;;;1999.90;999.90;;;19.20;73.00;;;;;;5051002;28;20601;-69
2023/06/24 05:21:30;;;;;;;1999.90;999.90;;;19.20;73.50;;;;;;5057959;28;20136;-70
2023/06/24 05:23:57;;;;;;;1999.90;999.90;;;19.20;72.20;;;;;;5054456;28;20028;-70
2023/06/24 05:26:25;;;;;;;1999.90;999.90;;;19.20;72.40;;;;;;5054314;28;20036;-69
2023/06/24 05:28:52;;;;;;;1999.90;999.90;;;19.20;73.50;;;;;;5052803;28;20021;-68
2023/06/24 05:31:19;;;;;;;1999.90;999.90;;;19.20;73.10;;;;;;5054891;28;20365;-68
2023/06/24 05:33:47;;;;;;;1999.90;999.90;;;19.20;73.30;;;;;;5060168;28;20491;-69
2023/06/24 05:36:15;;;;;;;1999.90;999.90;;;19.20;73.30;;;;;;5059508;28;20033;-69
2023/06/24 05:38:42;;;;;;;1999.90;999.90;;;19.20;73.00;;;;;;5067014;28;20033;-72
2023/06/24 05:41:09;;;;;;;1999.90;999.90;;;19.20;72.90;;;;;;5055052;28;20032;-72
2023/06/24 05:43:37;;;;;;;1999.90;999.90;;;19.10;73.00;;;;;;5061874;28;20480;-70
2023/06/24 05:46:04;;;;;;;1999.90;999.90;;;19.10;73.10;;;;;;5057807;28;20029;-70
2023/06/24 05:48:31;;;;;;;1999.90;999.90;;;19.10;73.20;;;;;;5058968;28;20498;-69
2023/06/24 05:50:59;;;;;;;1999.90;999.90;;;19.10;73.00;;;;;;5055171;28;20033;-69
2023/06/24 05:53:26;;;;;;;1999.90;999.90;;;19.10;73.30;;;;;;5059375;28;20125;-69
2023/06/24 05:55:53;;;;;;;1999.90;999.90;;;19.10;73.20;;;;;;5058075;28;20030;-69
2023/06/24 05:58:21;;;;;;;1999.90;999.90;;;19.00;73.40;;;;;;5060985;28;20114;-69
2023/06/24 06:00:48;;;;;;;1999.90;999.90;;;18.90;74.00;;;;;;5054034;28;20048;-69
2023/06/24 06:03:15;;;;;;;1999.90;999.90;;;18.90;73.80;;;;;;5058290;28;20056;-70
2023/06/24 06:05:42;;;;;;;1999.90;999.90;;;18.80;74.10;;;;;;5059822;28;20040;-69
2023/06/24 06:08:10;;;;;;;1999.90;999.90;;;18.80;74.30;;;;;;5064915;28;20044;-72
2023/06/24 06:10:37;;;;;;;1999.90;999.90;;;18.90;74.20;;;;;;5051398;28;20112;-72
2023/06/24 06:13:04;;;;;;;1999.90;999.90;;;19.00;74.50;;;;;;5055444;28;20032;-69
2023/06/24 06:15:32;;;;;;;1999.90;999.90;;;19.10;74.80;;;;;;5057226;28;20020;-69
2023/06/24 06:17:59;;;;;;;1999.90;999.90;;;19.10;74.40;;;;;;5060549;28;20045;-69
2023/06/24 06:20:26;;;;;;;1999.90;999.90;;;19.10;74.50;;;;;;5054320;28;20028;-70
2023/06/24 06:22:54;;;;;;;1999.90;999.90;;;19.20;74.40;;;;;;5059588;28;20024;-71
2023/06/24 06:25:21;;;;;;;1999.90;999.90;;;19.10;74.30;;;;;;5050328;28;20926;-75
2023/06/24 06:27:49;;;;;;;1999.90;999.90;;;19.10;74.90;;;;;;5058399;28;20060;-71
2023/06/24 06:30:17;;;;;;;1999.90;999.90;;;19.00;75.20;;;;;;5054731;28;20371;-73
2023/06/24 06:32:44;;;;;;;1999.90;999.90;;;18.90;75.40;;;;;;5058865;28;20024;-70
2023/06/24 06:35:12;;;;;;;1999.90;999.90;;;18.80;74.50;;;;;;5061082;28;20024;-72
2023/06/24 06:37:39;;;;;;;1999.90;999.90;;;18.60;74.80;;;;;;5059575;28;20040;-70
2023/06/24 06:40:07;;;;;;;1999.90;999.90;;;18.40;75.10;;;;;;5054959;28;20087;-71
2023/06/24 06:42:35;;;;;;;1999.90;999.90;;;18.20;75.40;;;;;;5055245;28;20068;-70
2023/06/24 06:45:03;;;;;;;1999.90;999.90;;;18.00;75.90;;;;;;5055346;28;20017;-71
2023/06/24 06:47:30;;;;;;;1999.90;999.90;;;17.80;76.40;;;;;;5055915;28;20044;-70
2023/06/24 06:49:57;;;;;;;1999.90;999.90;;;17.60;76.60;;;;;;5045651;28;20487;-70
2023/06/24 06:52:25;;;;;;;1999.90;999.90;;;17.40;77.20;;;;;;5058199;28;20075;-70
2023/06/24 06:54:52;;;;;;;1999.90;999.90;;;17.20;77.60;;;;;;5054228;28;20547;-71
2023/06/24 06:57:19;;;;;;;1999.90;999.90;;;17.00;78.30;;;;;;5053640;28;20041;-70
2023/06/24 06:59:47;;;;;;;1999.90;999.90;;;16.80;78.80;;;;;;5054874;28;20498;-69
2023/06/24 07:02:14;;;;;;;1999.90;999.90;;;16.60;79.40;;;;;;5046614;28;20021;-69
2023/06/24 07:04:41;;;;;;;1999.90;999.90;;;16.40;80.20;;;;;;5052774;28;20049;-70
2023/06/24 07:07:09;;;;;;;1999.90;999.90;;;16.20;81.00;;;;;;5048064;28;20029;-69
2023/06/24 07:09:37;;;;;;;1999.90;999.90;;;16.10;82.50;;;;;;5053351;28;20044;-69
2023/06/24 07:12:04;;;;;;;1999.90;999.90;;;15.90;82.00;;;;;;5049382;28;20411;-71
2023/06/24 07:14:32;;;;;;;1999.90;999.90;;;15.80;82.00;;;;;;5054627;28;20020;-70
2023/06/24 07:16:59;;;;;;;1999.90;999.90;;;15.70;82.30;;;;;;5048942;28;20062;-75
2023/06/24 07:19:27;;;;;;;1999.90;999.90;;;15.60;83.00;;;;;;5061063;28;20040;-70
2023/06/24 07:21:54;;;;;;;1999.90;999.90;;;15.50;83.50;;;;;;5059635;28;20131;-71
2023/06/24 07:24:21;;;;;;;1999.90;999.90;;;15.30;83.90;;;;;;5051993;28;20097;-71
2023/06/24 07:26:49;;;;;;;1999.90;999.90;;;15.30;83.80;;;;;;5055828;28;20033;-72
2023/06/24 07:29:18;;;;;;;1999.90;999.90;;;15.20;84.00;;;;;;5053287;28;20028;-71
2023/06/24 07:31:45;;;;;;;1999.90;999.90;;;15.20;84.50;;;;;;5056675;28;20040;-70
2023/06/24 07:34:12;;;;;;;1999.90;999.90;;;15.20;84.70;;;;;;5059155;28;20032;-71
2023/06/24 07:36:40;;;;;;;1999.90;999.90;;;15.10;84.70;;;;;;5052176;28;20045;-70
2023/06/24 07:39:07;;;;;;;1999.90;999.90;;;15.10;84.70;;;;;;5055534;28;20098;-70
2023/06/24 07:41:39;;;;;;;1999.90;999.90;;;15.00;85.40;;;;;;5051041;28;20479;-75
2023/06/24 07:44:06;;;;;;;1999.90;999.90;;;14.90;86.20;;;;;;5054475;28;20029;-71
2023/06/24 07:46:34;;;;;;;1999.90;999.90;;;14.90;84.10;;;;;;5052275;28;20422;-71
2023/06/24 07:49:01;;;;;;;1999.90;999.90;;;14.80;85.20;;;;;;5059529;28;20037;-71
2023/06/24 07:51:29;;;;;;;1999.90;999.90;;;14.80;85.00;;;;;;5053210;28;20024;-70
2023/06/24 07:53:56;;;;;;;1999.90;999.90;;;14.80;83.00;;;;;;5059882;28;20017;-71
2023/06/24 07:56:24;;;;;;;1999.90;999.90;;;14.80;84.20;;;;;;5057936;28;20531;-71
2023/06/24 07:58:51;;;;;;;1999.90;999.90;;;14.70;85.30;;;;;;5052713;28;20074;-70
2023/06/24 08:01:19;;;;;;;1999.90;999.90;;;14.60;85.90;;;;;;5056274;28;20033;-71
2023/06/24 08:03:46;;;;;;;1999.90;999.90;;;14.40;86.60;;;;;;5055446;28;20066;-71
2023/06/24 08:06:14;;;;;;;1999.90;999.90;;;14.20;87.30;;;;;;5050711;28;20475;-72
2023/06/24 08:08:41;;;;;;;1999.90;999.90;;;14.00;87.90;;;;;;5055898;28;20030;-69
2023/06/24 08:11:09;;;;;;;1999.90;999.90;;;13.80;89.20;;;;;;5051858;28;20447;-69
2023/06/24 08:13:36;;;;;;;1999.90;999.90;;;13.60;89.00;;;;;;5054746;28;20026;-70
2023/06/24 08:16:04;;;;;;;1999.90;999.90;;;13.50;87.80;;;;;;5053103;28;20051;-68
2023/06/24 08:18:31;;;;;;;1999.90;999.90;;;13.50;85.90;;;;;;5055450;28;20174;-72
2023/06/24 08:20:59;;;;;;;1999.90;999.90;;;13.50;86.20;;;;;;5053052;28;20115;-69
2023/06/24 08:23:27;;;;;;;1999.90;999.90;;;13.40;86.40;;;;;;5062219;28;20036;-69
2023/06/24 08:25:54;;;;;;;1999.90;999.90;;;13.30;86.60;;;;;;5048298;28;20075;-69
2023/06/24 08:28:22;;;;;;;1999.90;999.90;;;13.30;86.60;;;;;;5052705;28;20060;-68
2023/06/24 08:30:50;;;;;;;1999.90;999.90;;;13.10;87.00;;;;;;5053795;28;20037;-72
2023/06/24 08:33:18;;;;;;;1999.90;999.90;;;13.00;87.40;;;;;;5054462;28;20381;-70
2023/06/24 08:35:46;;;;;;;1999.90;999.90;;;12.80;88.10;;;;;;5052100;28;20489;-70
2023/06/24 08:38:13;;;;;;;1999.90;999.90;;;12.70;89.20;;;;;;5053255;28;20045;-71
2023/06/24 08:40:43;;;;;;;1999.90;999.90;;;12.60;89.50;;;;;;5056666;28;20060;-70
2023/06/24 08:43:11;;;;;;;1999.90;999.90;;;12.50;90.20;;;;;;5053176;28;20098;-73
2023/06/24 08:45:38;;;;;;;1999.90;999.90;;;12.40;90.50;;;;;;5050705;28;20021;-69
2023/06/24 08:48:08;;;;;;;1999.90;999.90;;;12.30;91.00;;;;;;5049877;28;20796;-70
2023/06/24 08:50:44;;;;;;;1999.90;999.90;;;12.10;91.10;;;;;;5039483;28;20061;-70
2023/06/24 08:53:13;;;;;;;1999.90;999.90;;;12.10;91.00;;;;;;5046933;28;20033;-70
2023/06/24 08:55:43;;;;;;;1999.90;999.90;;;12.00;91.30;;;;;;5055787;28;20029;-68
2023/06/24 08:58:11;;;;;;;1999.90;999.90;;;11.90;91.40;;;;;;5056794;28;20041;-75
2023/06/24 09:00:38;;;;;;;1999.90;999.90;;;11.90;91.90;;;;;;5053311;28;20396;-70
2023/06/24 09:03:06;;;;;;;1999.90;999.90;;;11.80;92.00;;;;;;5059114;28;20033;-69
2023/06/24 09:05:33;;;;;;;1999.90;999.90;;;11.60;91.90;;;;;;5051640;28;20025;-73
2023/06/24 09:08:01;;;;;;;1999.90;999.90;;;11.50;91.80;;;;;;5059830;28;20107;-69
2023/06/24 09:10:36;;;;;;;1999.90;999.90;;;11.50;91.60;;;;;;5050802;28;20039;-69
2023/06/24 09:13:06;;;;;;;1999.90;999.90;;;11.40;91.70;;;;;;5060637;28;20032;-70
2023/06/24 09:15:39;;;;;;;1999.90;999.90;;;11.30;91.60;;;;;;5060042;28;20025;-69
2023/06/24 09:18:10;;;;;;;1999.90;999.90;;;11.30;91.70;;;;;;5060366;28;20048;-69
2023/06/24 09:20:45;;;;;;;1999.90;999.90;;;11.20;91.90;;;;;;5050637;28;20476;-69
2023/06/24 09:23:13;;;;;;;1999.90;999.90;;;11.10;91.80;;;;;;5061667;28;20041;-67
2023/06/24 09:25:40;;;;;;;1999.90;999.90;;;11.10;92.20;;;;;;5044977;28;20025;-69
2023/06/24 09:28:08;;;;;;;1999.90;999.90;;;11.00;92.40;;;;;;5058006;28;20466;-67
2023/06/24 09:30:36;;;;;;;1999.90;999.90;;;11.00;92.70;;;;;;5057971;28;20048;-73
2023/06/24 09:33:05;;;;;;;1999.90;999.90;;;10.90;92.70;;;;;;5057856;28;20077;-68
2023/06/24 09:35:37;;;;;;;1999.90;999.90;;;10.80;93.10;;;;;;5055971;28;20164;-69
2023/06/24 09:38:05;;;;;;;1999.90;999.90;;;10.70;93.50;;;;;;5059028;28;20536;-68
2023/06/24 09:40:37;;;;;;;1999.90;999.90;;;10.60;93.60;;;;;;5052390;28;20116;-70
2023/06/24 09:43:04;;;;;;;1999.90;999.90;;;10.50;93.80;;;;;;5052168;28;20025;-69
2023/06/24 09:45:32;;;;;;;1999.90;999.90;;;10.40;93.70;;;;;;5055223;28;20029;-73
2023/06/24 09:47:59;;;;;;;1999.90;999.90;;;10.40;93.50;;;;;;5059431;28;20491;-68
2023/06/24 09:50:26;;;;;;;1999.90;999.90;;;10.30;93.70;;;;;;5055949;28;20021;-71
2023/06/24 09:52:57;;;;;;;1999.90;999.90;;;10.20;93.80;;;;;;5058454;28;20158;-74
2023/06/24 09:55:24;;;;;;;1999.90;999.90;;;10.20;93.70;;;;;;5054978;28;20024;-71
2023/06/24 09:57:54;;;;;;;1999.90;999.90;;;10.10;93.60;;;;;;5051948;28;20044;-68
2023/06/24 10:00:22;;;;;;;1999.90;999.90;;;10.10;93.70;;;;;;5059354;28;20199;-68
2023/06/24 10:02:54;;;;;;;1999.90;999.90;;;10.10;93.70;;;;;;5060260;28;20045;-69
2023/06/24 10:05:21;;;;;;;1999.90;999.90;;;10.00;93.70;;;;;;5054151;28;20045;-69
2023/06/24 10:07:49;;;;;;;1999.90;999.90;;;10.00;93.50;;;;;;5058942;28;20033;-69
2023/06/24 10:10:18;;;;;;;1999.90;999.90;;;10.00;93.90;;;;;;5053423;28;20399;-69
2023/06/24 10:12:45;;;;;;;1999.90;999.90;;;9.90;94.10;;;;;;5055325;28;20104;-69
2023/06/24 10:15:12;;;;;;;1999.90;999.90;;;9.90;94.50;;;;;;5053168;28;20036;-69
2023/06/24 10:17:40;;;;;;;1999.90;999.90;;;9.70;94.30;;;;;;5053703;28;20115;-73
2023/06/24 10:20:08;;;;;;;1999.90;999.90;;;9.70;94.70;;;;;;5059983;28;20033;-71
2023/06/24 10:22:36;;;;;;;1999.90;999.90;;;9.70;94.60;;;;;;5055506;28;20052;-71
2023/06/24 10:25:07;;;;;;;1999.90;999.90;;;9.60;94.00;;;;;;5049892;28;21088;-68
2023/06/24 10:27:42;;;;;;;1999.90;999.90;;;9.60;94.30;;;;;;5052156;28;20091;-68
2023/06/24 10:30:18;;;;;;;1999.90;999.90;;;9.60;94.60;;;;;;5048783;28;20062;-71
2023/06/24 10:32:46;;;;;;;1999.90;999.90;;;9.60;95.00;;;;;;5052355;28;20396;-73
2023/06/24 10:35:24;;;;;;;1999.90;999.90;;;9.50;95.10;;;;;;5045402;28;20400;-69
2023/06/24 10:38:02;;;;;;;1999.90;999.90;;;9.40;95.00;;;;;;5051155;28;20039;-70
2023/06/24 10:40:38;;;;;;;1999.90;999.90;;;9.30;95.20;;;;;;5049385;28;20094;-70
2023/06/24 10:43:23;;;;;;;1999.90;999.90;;;9.20;95.20;;;;;;5056695;28;20032;-69
2023/06/24 10:45:52;;;;;;;1999.90;999.90;;;9.20;95.40;;;;;;5056043;28;20028;-68
2023/06/24 10:48:20;;;;;;;1999.90;999.90;;;9.20;95.40;;;;;;5057675;28;20052;-69
2023/06/24 10:50:50;;;;;;;1999.90;999.90;;;9.20;95.40;;;;;;5051307;28;20024;-67
2023/06/24 10:53:21;;;;;;;1999.90;999.90;;;9.10;95.60;;;;;;5055376;28;20033;-74
2023/06/24 10:55:48;;;;;;;1999.90;999.90;;;9.10;95.60;;;;;;5050635;28;20029;-69
2023/06/24 10:58:17;;;;;;;1999.90;999.90;;;9.10;95.70;;;;;;5058014;28;20124;-68
2023/06/24 11:00:46;;;;;;;1999.90;999.90;;;9.10;95.70;;;;;;5056006;28;20031;-69
2023/06/24 11:03:16;;;;;;;1999.90;999.90;;;9.00;95.90;;;;;;5049759;28;20033;-70
2023/06/24 11:05:45;;;;;;;1999.90;999.90;;;9.10;95.90;;;;;;5055947;28;20380;-70
2023/06/24 11:08:13;;;;;;;1999.90;999.90;;;9.10;95.60;;;;;;5059609;28;20030;-68
2023/06/24 11:10:58;;;;;;;1999.90;999.90;;;9.10;95.50;;;;;;5051924;28;20029;-67
2023/06/24 11:13:25;;;;;;;1999.90;999.90;;;9.10;95.40;;;;;;5055429;28;20040;-69
2023/06/24 11:15:53;;;;;;;1999.90;999.90;;;9.10;95.90;;;;;;5055649;28;20033;-70
2023/06/24 11:18:20;;;;;;;1999.90;999.90;;;9.10;96.00;;;;;;5057452;28;20037;-69
2023/06/24 11:20:54;;;;;;;1999.90;999.90;;;9.00;96.30;;;;;;5055589;28;20379;-68
2023/06/24 11:23:22;;;;;;;1999.90;999.90;;;8.90;96.50;;;;;;5053276;28;20041;-69
2023/06/24 11:25:49;;;;;;;1999.90;999.90;;;8.90;96.80;;;;;;5049166;28;20044;-69
2023/06/24 11:28:20;;;;;;;1999.90;999.90;;;8.80;97.00;;;;;;5059312;28;20021;-70
2023/06/24 11:30:47;;;;;;;1999.90;999.90;;;8.80;97.30;;;;;;5052742;28;20021;-69
2023/06/24 11:33:26;;;;;;;1999.90;999.90;;;8.70;97.50;;;;;;5064123;28;20021;-72
2023/06/24 11:35:53;;;;;;;1999.90;999.90;;;8.60;97.70;;;;;;5053678;28;20432;-70
2023/06/24 11:38:20;;;;;;;1999.90;999.90;;;8.50;97.80;;;;;;5058793;28;20041;-68
2023/06/24 11:40:49;;;;;;;1999.90;999.90;;;8.40;98.20;;;;;;5048604;28;20059;-70
2023/06/24 11:43:17;;;;;;;1999.90;999.90;;;8.40;98.50;;;;;;5053266;28;20021;-67
2023/06/24 11:45:46;;;;;;;1999.90;999.90;;;8.30;98.60;;;;;;5051748;28;20075;-69
2023/06/24 11:48:13;;;;;;;1999.90;999.90;;;8.20;98.80;;;;;;5046046;28;20029;-70
2023/06/24 11:50:40;;;;;;;1999.90;999.90;;;8.20;99.10;;;;;;5052652;28;20036;-68
2023/06/24 11:53:08;;;;;;;1999.90;999.90;;;8.20;99.40;;;;;;5053675;28;20387;-70
2023/06/24 11:55:35;;;;;;;1999.90;999.90;;;8.20;99.70;;;;;;5049438;28;20036;-69
2023/06/24 11:58:09;;;;;;;1999.90;999.90;;;8.20;99.60;;;;;;5065791;28;20048;-69
2023/06/24 12:00:44;;;;;;;1999.90;999.90;;;8.20;99.50;;;;;;5052980;28;20806;-70
2023/06/24 12:03:12;;;;;;;1999.90;999.90;;;8.20;99.70;;;;;;5049906;28;20042;-74
2023/06/24 12:05:44;;;;;;;1999.90;999.90;;;8.10;99.60;;;;;;5045653;28;20060;-69
2023/06/24 12:08:15;;;;;;;1999.90;999.90;;;8.20;99.80;;;;;;5060988;28;20042;-69
2023/06/24 12:10:46;;;;;;;1999.90;999.90;;;8.20;99.90;;;;;;5046042;28;20032;-70